Time;durP1;ratioP1;P1;durP2;ratioP2;P2;SDS_P1;SDS_P2;PMS_P1;PMS_P2;Temp;Humidity;BMP_temperature;BMP_pressure;BME280_temperature;BME280_humidity;BME280_pressure;Samples;Min_cycle;Max_cycle;Signal;HPM_P1;HPM_P2
2021/04/13 00:01:14;;;;;;;16.15;10.05;;;;;;;1.27;80.63;101189.42;2171184;80;21703;-69
2021/04/13 00:04:18;;;;;;;14.75;9.85;;;;;;;1.19;80.71;101182.45;2170546;80;21143;-70
2021/04/13 00:07:24;;;;;;;18.67;10.90;;;;;;;1.19;80.80;101187.67;2173297;80;21528;-69
2021/04/13 00:10:47;;;;;;;12.30;8.73;;;;;;;1.30;80.96;101185.34;2173154;80;21623;-71
2021/04/13 00:13:56;;;;;;;10.68;7.85;;;;;;;1.36;80.90;101193.33;2174258;80;21090;-69
2021/04/13 00:17:02;;;;;;;14.18;11.25;;;;;;;1.36;80.72;101193.80;2168719;80;21200;-68
2021/04/13 00:20:24;;;;;;;12.20;9.05;;;;;;;1.42;80.71;101187.77;2178207;80;21177;-68
2021/04/13 00:23:26;;;;;;;10.50;8.20;;;;;;;1.41;80.51;101195.23;2171514;80;21545;-69
2021/04/13 00:26:30;;;;;;;13.18;9.13;;;;;;;1.38;80.40;101199.77;2172343;80;21104;-69
2021/04/13 00:29:32;;;;;;;17.90;13.32;;;;;;;1.36;80.41;101197.25;2176945;80;21134;-72
2021/04/13 00:32:36;;;;;;;21.77;13.85;;;;;;;1.39;80.38;101193.63;2169330;80;21477;-71
2021/04/13 00:38:48;;;;;;;14.83;10.53;;;;;;;1.33;80.22;101189.09;2175469;80;21181;-69
2021/04/13 00:41:58;;;;;;;11.85;8.78;;;;;;;1.36;80.25;101191.17;2170840;80;21603;-69
2021/04/13 00:45:04;;;;;;;10.32;8.43;;;;;;;1.32;80.08;101195.27;2167654;80;21178;-69
2021/04/13 00:48:08;;;;;;;13.95;9.95;;;;;;;1.32;80.09;101197.02;2176357;80;21619;-69
2021/04/13 00:51:27;;;;;;;14.87;10.25;;;;;;;1.33;80.20;101190.41;2176919;80;21118;-69
2021/04/13 00:54:39;;;;;;;14.90;9.65;;;;;;;1.37;80.21;101191.55;2173687;80;21133;-69
2021/04/13 00:57:58;;;;;;;12.28;9.85;;;;;;;1.38;80.12;101184.95;2179595;80;21112;-70
2021/04/13 01:01:20;;;;;;;14.13;9.80;;;;;;;1.36;80.06;101188.09;2174941;80;21521;-69
2021/04/13 01:04:36;;;;;;;11.18;8.50;;;;;;;1.36;80.00;101182.02;2177106;80;21495;-69
2021/04/13 01:07:44;;;;;;;12.20;8.98;;;;;;;1.27;79.79;101183.36;2180958;80;21081;-69
2021/04/13 01:10:46;;;;;;;11.45;8.75;;;;;;;1.25;79.96;101192.58;2173261;80;21104;-69
2021/04/13 01:13:52;;;;;;;12.58;9.23;;;;;;;1.26;80.01;101202.57;2160409;81;21531;-70
2021/04/13 01:17:02;;;;;;;13.13;9.13;;;;;;;1.29;80.04;101206.33;2149205;80;21151;-69
2021/04/13 01:20:15;;;;;;;11.78;9.38;;;;;;;1.24;79.99;101200.05;2153758;80;21464;-70
2021/04/13 01:23:24;;;;;;;14.80;9.85;;;;;;;1.25;79.91;101200.89;2169352;80;21182;-69
2021/04/13 01:26:22;;;;;;;13.83;10.05;;;;;;;1.28;80.02;101195.03;2172253;80;22308;-72
2021/04/13 01:29:30;;;;;;;14.58;10.90;;;;;;;1.28;79.83;101204.18;2167335;80;21180;-69
2021/04/13 01:32:32;;;;;;;15.30;9.95;;;;;;;1.27;79.89;101200.36;2167261;80;21172;-69
2021/04/13 01:35:33;;;;;;;12.95;9.30;;;;;;;1.10;79.56;101216.92;2176108;80;21144;-73
2021/04/13 01:38:43;;;;;;;13.95;9.38;;;;;;;0.93;79.77;101215.61;2156211;80;21163;-69
2021/04/13 01:42:09;;;;;;;11.33;8.95;;;;;;;0.88;79.88;101211.94;2168069;80;22371;-69
2021/04/13 01:44:56;;;;;;;14.33;9.05;;;;;;;0.88;80.11;101206.25;2164464;80;21681;-69
2021/04/13 01:47:58;;;;;;;11.83;8.93;;;;;;;0.96;80.35;101204.99;2166404;80;21521;-69
2021/04/13 01:51:04;;;;;;;13.15;9.45;;;;;;;1.07;80.44;101208.77;2161391;80;21161;-69
2021/04/13 01:54:11;;;;;;;12.98;9.25;;;;;;;1.10;80.21;101199.46;2159081;81;21205;-70
2021/04/13 01:57:41;;;;;;;17.70;10.48;;;;;;;1.14;80.28;101202.75;2170854;80;21145;-70
2021/04/13 02:00:50;;;;;;;14.55;10.48;;;;;;;1.20;80.29;101200.28;2177623;80;21536;-69
2021/04/13 02:04:17;;;;;;;18.15;10.78;;;;;;;1.26;80.18;101201.26;2173877;80;21135;-69
2021/04/13 02:08:01;;;;;;;16.37;12.50;;;;;;;1.30;80.24;101198.88;2177320;80;21101;-70
2021/04/13 02:11:09;;;;;;;16.75;11.15;;;;;;;1.33;80.18;101198.72;2167490;81;21178;-69
2021/04/13 02:14:16;;;;;;;25.70;20.32;;;;;;;1.31;80.05;101195.33;2176784;80;21121;-69
2021/04/13 02:17:32;;;;;;;18.75;13.22;;;;;;;1.24;79.96;101202.67;2172452;80;21137;-69
2021/04/13 02:20:39;;;;;;;18.65;12.80;;;;;;;1.20;80.09;101200.28;2163504;81;21126;-70
2021/04/13 02:23:51;;;;;;;17.02;12.25;;;;;;;1.19;80.15;101194.21;2179213;80;21517;-69
2021/04/13 02:26:56;;;;;;;15.03;9.88;;;;;;;1.18;80.17;101202.96;2163316;80;21193;-69
2021/04/13 02:30:09;;;;;;;13.35;8.35;;;;;;;1.14;80.21;101202.75;2168981;80;21204;-70
2021/04/13 02:33:25;;;;;;;10.23;7.53;;;;;;;1.12;80.26;101200.67;2174593;80;21065;-69
2021/04/13 02:36:32;;;;;;;11.70;7.35;;;;;;;1.13;80.35;101206.30;2177568;80;21094;-72
2021/04/13 02:39:35;;;;;;;11.12;6.53;;;;;;;1.16;80.47;101202.69;2178697;80;21111;-69
2021/04/13 02:42:50;;;;;;;10.32;7.10;;;;;;;1.17;80.52;101205.67;2163067;80;21156;-70
2021/04/13 02:45:56;;;;;;;10.13;7.65;;;;;;;1.19;80.53;101194.68;2175402;80;21125;-70
2021/04/13 02:49:14;;;;;;;11.40;7.65;;;;;;;1.23;80.58;101207.96;2178251;80;21315;-72
2021/04/13 02:52:21;;;;;;;10.15;8.35;;;;;;;1.21;80.52;101204.58;2175855;80;21177;-70
2021/04/13 02:55:31;;;;;;;15.72;9.18;;;;;;;1.19;80.53;101211.20;2173219;80;21546;-70
2021/04/13 02:58:41;;;;;;;10.53;8.48;;;;;;;1.18;80.57;101209.50;2175662;80;21129;-71
2021/04/13 03:02:04;;;;;;;11.63;8.55;;;;;;;1.18;80.52;101205.58;2179151;80;21652;-70
2021/04/13 03:05:08;;;;;;;12.88;9.83;;;;;;;1.14;80.53;101207.98;2175431;80;21216;-71
2021/04/13 03:08:14;;;;;;;12.68;9.08;;;;;;;1.16;80.61;101207.45;2176595;80;21194;-69
2021/04/13 03:11:20;;;;;;;10.25;7.92;;;;;;;1.22;80.66;101213.66;2175484;80;21173;-70
2021/04/13 03:14:24;;;;;;;11.57;7.97;;;;;;;1.30;80.70;101202.34;2179115;80;21526;-69
2021/04/13 03:17:32;;;;;;;11.08;7.70;;;;;;;1.31;80.57;101204.48;2178196;80;21164;-69
2021/04/13 03:20:47;;;;;;;11.20;8.13;;;;;;;1.32;80.53;101211.39;2174309;80;21658;-69
2021/04/13 03:23:51;;;;;;;13.05;8.50;;;;;;;1.32;80.46;101214.88;2171044;80;21155;-70
2021/04/13 03:27:00;;;;;;;12.73;8.73;;;;;;;1.32;80.51;101210.09;2181536;80;21149;-70
2021/04/13 03:30:19;;;;;;;12.23;8.40;;;;;;;1.27;80.41;101202.50;2154607;80;21211;-69
2021/04/13 03:33:31;;;;;;;11.68;8.70;;;;;;;1.25;80.54;101202.20;2156682;81;21206;-69
2021/04/13 03:36:34;;;;;;;12.43;8.35;;;;;;;1.26;80.57;101203.41;2170698;80;21158;-70
2021/04/13 03:39:40;;;;;;;12.55;8.40;;;;;;;1.18;80.51;101202.13;2168330;80;21089;-69
2021/04/13 03:42:43;;;;;;;11.43;8.10;;;;;;;1.16;80.58;101201.38;2175528;80;21098;-69
2021/04/13 03:45:44;;;;;;;12.18;7.70;;;;;;;1.17;80.71;101197.36;2176395;80;21629;-68
2021/04/13 03:48:49;;;;;;;11.20;7.58;;;;;;;1.17;80.67;101209.13;2170308;80;22270;-69
2021/04/13 03:51:56;;;;;;;16.12;8.68;;;;;;;1.21;80.73;101213.29;2176289;80;21220;-69
2021/04/13 03:55:01;;;;;;;10.32;7.92;;;;;;;1.26;80.74;101200.80;2169756;80;21712;-69
2021/04/13 03:58:19;;;;;;;11.85;7.37;;;;;;;1.29;80.76;101203.24;2154330;80;21169;-69
2021/04/13 04:01:30;;;;;;;10.68;7.62;;;;;;;1.30;80.63;101205.42;2169643;80;21201;-68
2021/04/13 04:04:39;;;;;;;10.18;7.33;;;;;;;1.32;80.76;101197.88;2177941;80;21719;-70
2021/04/13 04:07:51;;;;;;;10.72;8.80;;;;;;;1.41;80.86;101201.77;2176767;80;21306;-68
2021/04/13 04:10:54;;;;;;;10.80;7.72;;;;;;;1.52;80.79;101203.80;2184970;80;21141;-73
2021/04/13 04:13:55;;;;;;;11.57;8.95;;;;;;;1.61;80.83;101213.79;2175935;80;21160;-69
2021/04/13 04:17:15;;;;;;;11.93;8.90;;;;;;;1.65;80.58;101214.45;2177215;80;21051;-70
2021/04/13 04:20:17;;;;;;;11.50;8.78;;;;;;;1.66;80.61;101214.39;2177497;80;21223;-71
2021/04/13 04:23:29;;;;;;;13.75;9.18;;;;;;;1.69;80.51;101215.97;2145287;80;21097;-70
2021/04/13 04:26:40;;;;;;;15.15;10.08;;;;;;;1.69;80.50;101213.35;2160408;80;21118;-70
2021/04/13 04:30:04;;;;;;;;;;;;;;;1.77;80.69;101214.66;2181066;80;21141;-72
2021/04/13 04:33:06;;;;;;;26.90;20.05;;;;;;;1.85;80.58;101219.92;2176948;80;20231;-69
2021/04/13 04:36:30;;;;;;;19.35;14.87;;;;;;;1.92;80.56;101214.74;2184120;80;21165;-70
2021/04/13 04:39:39;;;;;;;22.77;15.03;;;;;;;1.94;80.41;101221.59;2177619;80;21130;-70
2021/04/13 04:43:01;;;;;;;20.37;15.13;;;;;;;1.99;80.38;101227.86;2180460;80;21185;-70
2021/04/13 04:46:03;;;;;;;22.30;15.10;;;;;;;2.04;80.33;101223.69;2173574;80;21091;-70
2021/04/13 04:49:11;;;;;;;24.05;15.03;;;;;;;2.07;80.39;101229.59;2183898;80;21506;-70
2021/04/13 04:52:13;;;;;;;23.45;14.47;;;;;;;2.14;80.41;101236.19;2184456;80;21144;-70
2021/04/13 04:55:15;;;;;;;19.65;13.75;;;;;;;2.21;80.37;101236.68;2177650;80;21225;-72
2021/04/13 04:58:19;;;;;;;20.72;13.88;;;;;;;2.23;80.19;101244.83;2179685;80;21094;-70
2021/04/13 05:01:21;;;;;;;20.20;13.68;;;;;;;2.26;80.08;101249.53;2159882;80;21214;-71
2021/04/13 05:04:22;;;;;;;18.65;12.45;;;;;;;2.26;80.09;101244.30;2170032;80;21219;-69
2021/04/13 05:07:24;;;;;;;16.55;11.68;;;;;;;2.31;80.06;101245.72;2166031;80;21419;-73
2021/04/13 05:10:25;;;;;;;13.72;10.05;;;;;;;2.32;79.97;101247.40;2169183;80;21546;-73
2021/04/13 05:13:27;;;;;;;18.02;11.95;;;;;;;2.34;79.98;101251.26;2170777;80;21108;-70
2021/04/13 05:16:29;;;;;;;16.60;12.55;;;;;;;2.41;80.14;101249.97;2155525;80;21098;-70
2021/04/13 05:19:30;;;;;;;17.45;11.63;;;;;;;2.49;80.05;101250.37;2163338;80;21153;-72
2021/04/13 05:22:32;;;;;;;17.73;12.00;;;;;;;2.50;80.03;101242.88;2159962;80;21169;-70
2021/04/13 05:25:34;;;;;;;18.02;11.18;;;;;;;2.56;79.94;101248.23;2167805;80;21196;-70
2021/04/13 05:28:36;;;;;;;21.25;10.78;;;;;;;2.62;79.95;101247.91;2164882;81;21149;-70
2021/04/13 05:31:40;;;;;;;20.85;12.07;;;;;;;2.58;79.71;101243.30;2168795;80;21201;-70
2021/04/13 05:34:41;;;;;;;23.27;12.82;;;;;;;2.59;79.69;101243.69;2171019;80;21144;-70
2021/04/13 05:37:43;;;;;;;23.32;12.78;;;;;;;2.63;79.71;101246.97;2165637;80;21085;-72
2021/04/13 05:40:45;;;;;;;22.82;12.10;;;;;;;2.55;79.41;101247.88;2160829;80;21596;-71
2021/04/13 05:43:47;;;;;;;19.37;11.03;;;;;;;2.61;79.77;101244.42;2161197;81;21133;-72
2021/04/13 05:46:50;;;;;;;14.78;9.43;;;;;;;2.69;79.76;101247.92;2162519;80;21109;-70
2021/04/13 05:49:51;;;;;;;17.55;9.20;;;;;;;2.62;79.50;101247.45;2163084;80;21149;-72
2021/04/13 05:52:53;;;;;;;14.40;8.90;;;;;;;2.51;79.60;101253.77;2166262;80;21210;-72
2021/04/13 05:55:55;;;;;;;15.48;9.73;;;;;;;2.50;79.79;101257.30;2150400;81;21160;-70
2021/04/13 05:58:58;;;;;;;16.48;9.75;;;;;;;2.55;80.03;101263.13;2160931;80;21146;-69
2021/04/13 06:02:03;;;;;;;18.30;9.28;;;;;;;2.66;80.09;101262.05;2179826;80;21125;-71
2021/04/13 06:05:08;;;;;;;21.05;9.90;;;;;;;2.69;80.20;101263.17;2178811;80;21117;-70
2021/04/13 06:08:11;;;;;;;15.58;8.88;;;;;;;2.80;80.32;101256.48;2177768;80;22251;-71
2021/04/13 06:11:20;;;;;;;15.78;9.08;;;;;;;2.92;80.16;101258.38;2177782;80;21165;-71
2021/04/13 06:14:23;;;;;;;16.00;8.80;;;;;;;3.00;79.94;101254.84;2179723;79;21142;-70
2021/04/13 06:17:25;;;;;;;16.90;9.63;;;;;;;3.06;79.81;101257.57;2175808;80;21121;-71
2021/04/13 06:20:28;;;;;;;15.35;9.15;;;;;;;3.11;79.73;101262.92;2184792;80;21147;-69
2021/04/13 06:23:30;;;;;;;19.73;10.82;;;;;;;3.17;79.65;101261.72;2179246;80;21176;-72
2021/04/13 06:26:32;;;;;;;19.07;12.55;;;;;;;3.22;79.60;101262.77;2176388;80;21120;-70
2021/04/13 06:29:35;;;;;;;24.72;13.78;;;;;;;3.23;79.46;101268.38;2181702;80;21177;-68
2021/04/13 06:32:37;;;;;;;18.65;10.82;;;;;;;3.19;79.43;101272.97;2169705;80;22351;-68
2021/04/13 06:35:42;;;;;;;16.60;9.33;;;;;;;3.18;79.41;101267.80;2180912;80;21656;-68
2021/04/13 06:38:43;;;;;;;12.10;8.58;;;;;;;3.20;79.49;101273.80;2177698;80;21671;-70
2021/04/13 06:41:50;;;;;;;14.47;7.60;;;;;;;3.25;79.60;101271.76;2184280;80;21128;-68
2021/04/13 06:45:15;;;;;;;10.45;8.18;;;;;;;3.31;79.59;101270.91;2184010;80;21144;-69
2021/04/13 06:48:49;;;;;;;12.13;7.67;;;;;;;3.40;79.61;101272.14;2176755;80;21182;-69
2021/04/13 06:52:23;;;;;;;15.00;9.18;;;;;;;3.47;79.54;101268.70;2181793;80;21154;-68
2021/04/13 06:55:59;;;;;;;10.88;7.95;;;;;;;3.61;79.66;101280.51;2175685;80;21216;-69
2021/04/13 06:59:32;;;;;;;12.18;7.08;;;;;;;3.70;79.58;101284.34;2180024;80;21139;-68
2021/04/13 07:03:00;;;;;;;12.03;7.58;;;;;;;3.72;79.54;101298.23;2167964;80;22418;-69
2021/04/13 07:06:17;;;;;;;12.90;8.53;;;;;;;3.66;79.40;101293.33;2165773;80;21704;-69
2021/04/13 07:09:30;;;;;;;19.20;9.43;;;;;;;3.66;79.54;101299.89;2159641;80;21175;-70
2021/04/13 07:12:43;;;;;;;15.10;10.88;;;;;;;3.65;79.56;101294.28;2166797;80;21145;-74
2021/04/13 07:16:22;;;;;;;18.12;10.70;;;;;;;3.69;79.56;101294.02;2165053;80;21159;-73
2021/04/13 07:19:36;;;;;;;20.88;11.38;;;;;;;3.73;79.38;101297.28;2168423;80;21242;-73
2021/04/13 07:22:44;;;;;;;16.32;10.23;;;;;;;3.77;79.69;101296.14;2167401;81;21137;-73
2021/04/13 07:25:56;;;;;;;16.27;9.53;;;;;;;3.79;79.33;101296.91;2116226;80;21308;-70
2021/04/13 07:29:21;;;;;;;13.60;9.15;;;;;;;3.81;79.20;101294.56;2164857;80;21560;-72
2021/04/13 07:32:24;;;;;;;12.60;8.18;;;;;;;3.87;79.20;101282.84;2156671;80;21137;-72
2021/04/13 07:35:30;;;;;;;12.90;8.63;;;;;;;3.96;79.23;101287.98;2170590;80;21160;-73
2021/04/13 07:38:43;;;;;;;15.50;8.55;;;;;;;4.07;79.24;101288.16;2167646;81;21616;-73
2021/04/13 07:41:50;;;;;;;17.60;9.40;;;;;;;4.20;79.05;101291.70;2164807;80;21101;-72
2021/04/13 07:45:19;;;;;;;15.68;9.78;;;;;;;4.26;78.60;101290.47;2164009;80;21128;-72
2021/04/13 07:48:31;;;;;;;12.30;8.53;;;;;;;4.37;78.71;101293.73;2165420;81;21442;-72
2021/04/13 07:51:59;;;;;;;14.03;8.25;;;;;;;4.47;78.57;101293.50;2170588;80;21135;-71
2021/04/13 07:55:24;;;;;;;12.95;7.95;;;;;;;4.54;78.14;101280.83;2170928;80;21182;-71
2021/04/13 07:58:40;;;;;;;13.30;7.72;;;;;;;4.54;77.96;101293.97;2166247;80;21199;-71
2021/04/13 08:01:41;;;;;;;13.58;7.62;;;;;;;4.50;77.62;101297.24;2121338;80;21166;-71
2021/04/13 08:04:49;;;;;;;14.87;7.92;;;;;;;4.46;77.56;101282.62;2175294;80;21545;-70
2021/04/13 08:08:08;;;;;;;12.37;8.20;;;;;;;4.48;77.60;101285.53;2178397;80;21553;-71
2021/04/13 08:11:22;;;;;;;13.95;7.85;;;;;;;4.50;77.37;101277.53;2178819;80;21164;-72
2021/04/13 08:14:29;;;;;;;14.95;10.38;;;;;;;4.60;77.35;101286.99;2174668;80;21486;-71
2021/04/13 08:17:55;;;;;;;16.32;10.20;;;;;;;4.67;77.46;101280.38;2178946;80;21133;-72
2021/04/13 08:21:25;;;;;;;14.35;9.50;;;;;;;4.76;77.37;101283.73;2181877;80;21586;-72
2021/04/13 08:24:53;;;;;;;13.28;9.65;;;;;;;4.77;77.07;101292.47;2179084;80;21172;-72
2021/04/13 08:28:24;;;;;;;12.28;8.75;;;;;;;4.77;77.40;101291.98;2174673;80;21208;-71
2021/04/13 08:35:03;;;;;;;11.88;7.95;;;;;;;4.92;76.94;101288.33;2178196;80;20154;-72
2021/04/13 08:38:27;;;;;;;12.37;8.28;;;;;;;4.94;76.72;101290.87;2178143;80;21145;-72
2021/04/13 08:41:39;;;;;;;16.50;9.28;;;;;;;4.97;76.52;101288.52;2179921;80;21109;-72
2021/04/13 08:44:48;;;;;;;13.45;9.60;;;;;;;4.99;76.59;101292.73;2176622;80;21142;-71
2021/04/13 08:48:00;;;;;;;15.35;9.75;;;;;;;5.05;76.73;101287.06;2174738;80;21126;-71
2021/04/13 08:51:22;;;;;;;14.87;9.33;;;;;;;5.17;76.33;101282.76;2176781;80;21514;-72
2021/04/13 08:54:33;;;;;;;14.85;9.68;;;;;;;5.27;76.02;101271.98;2178499;80;21166;-72
2021/04/13 08:57:36;;;;;;;13.15;9.75;;;;;;;5.33;76.07;101278.14;2177004;80;21066;-71
2021/04/13 09:00:56;;;;;;;18.98;11.22;;;;;;;5.45;76.10;101279.56;2181467;80;21210;-72
2021/04/13 09:04:00;;;;;;;15.95;10.13;;;;;;;5.57;76.11;101285.30;2174476;80;21530;-72
2021/04/13 09:07:07;;;;;;;15.40;9.03;;;;;;;5.73;75.92;101275.39;2180129;79;21122;-72
2021/04/13 09:10:38;;;;;;;13.68;9.10;;;;;;;5.80;75.42;101280.61;2176773;80;21105;-71
2021/04/13 09:13:41;;;;;;;14.15;8.53;;;;;;;5.92;74.87;101274.11;2173213;80;21184;-72
2021/04/13 09:16:48;;;;;;;14.23;9.45;;;;;;;6.01;74.25;101276.95;2177805;80;21188;-73
2021/04/13 09:20:12;;;;;;;17.27;9.35;;;;;;;6.04;74.71;101275.89;2171569;80;21521;-73
2021/04/13 09:23:50;;;;;;;12.40;8.60;;;;;;;6.11;74.42;101274.52;2175539;80;21466;-72
2021/04/13 09:27:09;;;;;;;10.53;7.92;;;;;;;6.25;74.18;101279.64;2181541;80;21124;-72
2021/04/13 09:30:24;;;;;;;11.60;8.23;;;;;;;6.37;74.26;101278.39;2170266;80;21143;-73
2021/04/13 09:33:36;;;;;;;13.85;9.63;;;;;;;6.47;73.95;101274.11;2177005;80;21174;-72
2021/04/13 09:37:09;;;;;;;14.68;9.48;;;;;;;6.62;73.58;101274.80;2174646;80;21186;-72
2021/04/13 09:40:42;;;;;;;14.43;10.08;;;;;;;6.76;73.48;101271.98;2174954;80;21153;-72
2021/04/13 09:44:24;;;;;;;17.02;9.35;;;;;;;6.86;73.09;101267.69;2176075;80;21121;-73
2021/04/13 09:47:48;;;;;;;10.30;7.03;;;;;;;6.87;72.70;101269.84;2176758;80;21478;-73
2021/04/13 09:51:01;;;;;;;11.15;7.65;;;;;;;6.85;71.80;101269.14;2173853;80;21129;-71
2021/04/13 09:54:28;;;;;;;12.75;7.75;;;;;;;6.93;71.44;101262.33;2165827;80;21086;-71
2021/04/13 09:58:02;;;;;;;13.72;7.85;;;;;;;6.98;70.90;101262.45;2176711;80;21545;-72
2021/04/13 10:01:34;;;;;;;12.98;7.33;;;;;;;7.13;71.15;101261.30;2110276;81;21151;-69
2021/04/13 10:05:06;;;;;;;11.40;7.50;;;;;;;7.14;70.75;101261.17;2153686;81;22392;-67
2021/04/13 10:08:26;;;;;;;12.78;7.75;;;;;;;7.16;70.71;101259.27;2145350;81;21160;-69
2021/04/13 10:12:12;;;;;;;12.10;7.45;;;;;;;7.13;70.47;101256.03;2152334;80;21946;-67
2021/04/13 10:15:46;;;;;;;12.15;7.62;;;;;;;7.16;70.52;101243.42;2151589;81;21120;-67
2021/04/13 10:19:14;;;;;;;11.03;6.72;;;;;;;7.11;70.21;101242.09;2106143;81;21236;-68
2021/04/13 10:22:48;;;;;;;14.35;8.18;;;;;;;7.00;69.70;101236.80;2147762;81;21177;-70
2021/04/13 10:26:36;;;;;;;9.45;6.87;;;;;;;6.86;69.49;101245.75;2149211;81;21150;-70
2021/04/13 10:30:19;;;;;;;10.08;6.53;;;;;;;6.73;68.12;101237.92;2149829;80;21206;-71
2021/04/13 10:34:19;;;;;;;10.00;7.25;;;;;;;6.45;67.51;101233.86;2144661;81;21117;-71
2021/04/13 10:37:55;;;;;;;12.90;6.55;;;;;;;6.44;68.91;101228.20;2140651;81;21200;-70
2021/04/13 10:41:28;;;;;;;10.82;6.40;;;;;;;6.80;69.14;101227.75;2134603;81;21107;-72
2021/04/13 10:45:05;;;;;;;11.85;5.97;;;;;;;7.02;68.19;101226.48;2150630;81;21620;-70
2021/04/13 10:48:39;;;;;;;6.03;5.37;;;;;;;7.29;67.64;101224.86;2139466;81;21222;-71
2021/04/13 10:52:17;;;;;;;8.73;5.03;;;;;;;7.34;65.03;101218.72;2138578;81;21122;-71
2021/04/13 10:55:58;;;;;;;6.78;5.10;;;;;;;7.37;65.49;101222.92;2149117;80;21119;-68
2021/04/13 10:59:32;;;;;;;7.63;5.70;;;;;;;7.43;66.18;101209.23;2128954;81;21191;-75
2021/04/13 11:03:02;;;;;;;7.17;5.00;;;;;;;7.27;64.52;101210.09;2164839;80;21146;-70
2021/04/13 11:06:42;;;;;;;8.13;5.05;;;;;;;7.08;63.13;101204.90;2169051;81;21190;-69
2021/04/13 11:10:08;;;;;;;10.08;5.30;;;;;;;7.16;65.30;101204.32;2165861;80;21201;-69
2021/04/13 11:13:47;;;;;;;8.68;5.58;;;;;;;7.30;62.63;101202.77;2168948;80;21122;-69
2021/04/13 11:17:22;;;;;;;8.05;6.10;;;;;;;7.32;63.46;101194.26;2156764;80;21141;-70
2021/04/13 11:21:09;;;;;;;7.60;5.05;;;;;;;7.53;63.92;101197.01;2155536;80;21121;-69
2021/04/13 11:24:38;;;;;;;9.08;4.83;;;;;;;7.64;62.37;101196.16;2160873;80;21152;-68
2021/04/13 11:28:36;;;;;;;7.80;4.72;;;;;;;7.75;63.86;101194.00;2162419;80;21548;-70
2021/04/13 11:32:16;;;;;;;7.50;4.35;;;;;;;7.82;63.00;101193.84;2091885;83;21149;-70
2021/04/13 11:35:31;;;;;;;7.20;5.00;;;;;;;7.79;61.56;101186.17;2088074;83;21184;-70
2021/04/13 11:38:48;;;;;;;7.72;5.25;;;;;;;7.73;60.64;101191.95;2087890;83;21186;-69
2021/04/13 11:42:18;;;;;;;8.68;5.03;;;;;;;7.62;60.60;101186.19;2091502;83;21600;-70
2021/04/13 11:46:00;;;;;;;9.40;6.15;;;;;;;7.53;60.37;101193.53;2098269;83;21128;-68
2021/04/13 11:49:16;;;;;;;7.62;4.62;;;;;;;7.46;60.59;101194.95;2084549;83;21137;-71
2021/04/13 11:52:50;;;;;;;4.78;3.87;;;;;;;7.35;59.55;101190.55;2090428;83;21110;-70
2021/04/13 11:55:52;;;;;;;10.93;6.33;;;;;;;7.28;59.31;101199.88;2083290;83;21607;-70
2021/04/13 11:59:18;;;;;;;9.40;5.10;;;;;;;7.35;60.46;101190.05;2089269;83;21561;-69
2021/04/13 12:02:29;;;;;;;8.90;5.05;;;;;;;7.37;59.43;101187.28;2103721;83;21353;-71
2021/04/13 12:05:49;;;;;;;7.78;5.17;;;;;;;7.40;61.08;101181.75;2080361;83;21172;-75
2021/04/13 12:08:52;;;;;;;12.25;6.40;;;;;;;7.48;60.88;101176.72;2078898;83;22308;-70
2021/04/13 12:11:54;;;;;;;10.30;5.80;;;;;;;7.58;61.66;101177.68;2087823;83;21180;-69
2021/04/13 12:14:58;;;;;;;9.38;5.30;;;;;;;7.62;61.10;101172.50;2087390;83;21206;-73
2021/04/13 12:18:04;;;;;;;6.30;4.55;;;;;;;7.56;61.37;101171.67;2033164;83;21124;-76
2021/04/13 12:21:29;;;;;;;11.95;5.10;;;;;;;7.52;61.17;101171.56;2086228;83;21484;-73
2021/04/13 12:24:45;;;;;;;5.50;4.12;;;;;;;7.53;61.68;101169.27;2099160;83;21509;-68
2021/04/13 12:27:51;;;;;;;8.33;3.92;;;;;;;7.59;59.75;101162.66;2099098;83;21156;-70
2021/04/13 12:30:57;;;;;;;7.55;3.87;;;;;;;7.63;60.72;101158.34;2081767;83;21196;-69
2021/04/13 12:34:03;;;;;;;8.10;4.00;;;;;;;7.69;59.00;101148.27;2089550;83;21124;-68
2021/04/13 12:37:06;;;;;;;4.65;3.58;;;;;;;7.67;59.23;101136.48;2087903;82;21533;-68
2021/04/13 12:40:23;;;;;;;5.78;3.80;;;;;;;7.64;56.33;101136.73;2096751;83;21169;-71
2021/04/13 12:43:31;;;;;;;7.85;4.60;;;;;;;7.63;57.93;101133.25;2092058;83;21145;-68
2021/04/13 12:46:38;;;;;;;6.72;4.08;;;;;;;7.65;58.09;101127.83;2084181;83;21153;-69
2021/04/13 12:49:43;;;;;;;5.30;3.33;;;;;;;7.57;58.56;101129.79;2095553;82;21110;-70
2021/04/13 12:52:46;;;;;;;5.58;3.72;;;;;;;7.76;58.58;101115.09;2095024;83;21112;-69
2021/04/13 12:56:06;;;;;;;6.80;4.22;;;;;;;7.96;57.93;101122.22;2100484;83;21192;-71
2021/04/13 12:59:13;;;;;;;6.33;4.10;;;;;;;7.74;57.41;101107.76;2075300;83;21569;-66
2021/04/13 13:02:34;;;;;;;4.10;3.35;;;;;;;7.63;57.96;101109.97;2062767;84;21191;-68
2021/04/13 13:05:35;;;;;;;7.00;3.42;;;;;;;7.59;54.29;101092.19;2094500;82;21547;-67
2021/04/13 13:08:36;;;;;;;6.60;3.35;;;;;;;7.72;55.96;101089.89;2092901;82;21128;-70
2021/04/13 13:11:39;;;;;;;4.40;3.30;;;;;;;7.85;53.85;101090.09;2097370;83;21116;-72
2021/04/13 13:14:44;;;;;;;6.90;3.25;;;;;;;7.98;53.69;101070.09;2073524;83;21173;-70
2021/04/13 13:17:50;;;;;;;4.12;3.12;;;;;;;8.06;54.01;101076.07;2089219;83;21215;-73
2021/04/13 13:21:09;;;;;;;8.50;4.62;;;;;;;8.14;53.74;101076.27;2091538;83;21189;-71
2021/04/13 13:24:26;;;;;;;5.70;3.35;;;;;;;8.29;55.05;101075.47;2071062;83;21211;-72
2021/04/13 13:27:31;;;;;;;4.12;3.08;;;;;;;8.42;53.24;101066.90;2088451;83;21690;-71
2021/04/13 13:30:33;;;;;;;5.67;4.05;;;;;;;8.37;52.63;101066.41;2094813;82;21184;-75
2021/04/13 13:33:36;;;;;;;5.05;3.10;;;;;;;8.34;52.71;101064.03;2088457;82;21180;-77
2021/04/13 13:36:41;;;;;;;7.42;4.12;;;;;;;8.33;52.97;101068.11;2080418;83;21235;-73
2021/04/13 13:39:42;;;;;;;4.00;2.72;;;;;;;8.32;52.66;101064.63;2090393;83;21741;-76
2021/04/13 13:42:46;;;;;;;4.90;2.98;;;;;;;8.34;52.62;101058.73;2087042;83;21306;-73
2021/04/13 13:45:49;;;;;;;4.37;3.25;;;;;;;8.36;51.93;101063.39;2091876;83;21220;-73
2021/04/13 13:48:51;;;;;;;4.58;3.15;;;;;;;8.35;52.32;101059.08;2092654;83;21560;-73
2021/04/13 13:52:06;;;;;;;4.47;2.90;;;;;;;8.31;51.07;101048.42;2055450;85;21128;-73
2021/04/13 13:55:22;;;;;;;3.95;2.87;;;;;;;8.22;50.89;101057.11;2094498;83;21504;-73
2021/04/13 13:58:28;;;;;;;4.53;2.70;;;;;;;8.13;51.94;101053.91;2093337;82;21176;-74
2021/04/13 14:01:29;;;;;;;4.78;2.55;;;;;;;8.04;52.02;101049.75;2093933;83;21166;-75
2021/04/13 14:04:36;;;;;;;4.37;3.00;;;;;;;8.08;51.90;101060.90;2096628;82;21584;-73
2021/04/13 14:07:40;;;;;;;5.90;3.10;;;;;;;8.09;52.01;101063.42;2090357;82;21120;-73
2021/04/13 14:10:44;;;;;;;4.35;2.83;;;;;;;8.10;50.93;101048.40;2095868;83;21561;-74
2021/04/13 14:14:11;;;;;;;3.25;2.67;;;;;;;8.11;52.93;101047.91;2060998;83;21552;-73
2021/04/13 14:17:17;;;;;;;4.75;3.45;;;;;;;8.20;52.61;101043.20;2075921;83;21727;-73
2021/04/13 14:20:21;;;;;;;6.05;3.27;;;;;;;8.20;52.23;101044.52;2077501;83;21262;-74
2021/04/13 14:23:23;;;;;;;5.75;3.33;;;;;;;8.24;51.43;101035.35;2072924;83;21578;-74
2021/04/13 14:26:33;;;;;;;6.12;3.98;;;;;;;8.20;51.79;101037.91;2072723;83;21145;-73
2021/04/13 14:29:38;;;;;;;5.97;3.70;;;;;;;8.15;51.61;101032.16;2087334;83;21152;-73
2021/04/13 14:32:39;;;;;;;4.55;3.08;;;;;;;8.12;51.41;101035.91;2097171;83;21141;-72
2021/04/13 14:35:41;;;;;;;3.92;2.58;;;;;;;8.08;51.04;101044.58;2075120;83;21681;-71
2021/04/13 14:38:43;;;;;;;4.92;2.80;;;;;;;8.09;50.56;101039.64;2071349;83;21167;-74
2021/04/13 14:41:46;;;;;;;4.85;2.92;;;;;;;8.11;52.09;101039.98;2073293;82;22076;-72
2021/04/13 14:44:47;;;;;;;3.25;2.37;;;;;;;8.05;49.80;101034.72;2089183;83;21188;-72
2021/04/13 14:47:57;;;;;;;3.08;2.10;;;;;;;7.91;46.76;101030.58;2088996;82;21191;-72
2021/04/13 14:51:01;;;;;;;3.22;2.37;;;;;;;7.84;46.70;101030.75;2098790;83;21211;-74
2021/04/13 14:54:05;;;;;;;5.97;2.60;;;;;;;7.82;49.00;101037.47;2092536;83;21171;-74
2021/04/13 14:57:08;;;;;;;8.48;4.08;;;;;;;7.84;48.70;101027.62;2089962;83;21149;-72
2021/04/13 15:00:14;;;;;;;7.78;4.83;;;;;;;7.89;48.68;101031.70;2090497;83;21233;-72
2021/04/13 15:03:15;;;;;;;6.08;3.65;;;;;;;7.88;48.25;101024.72;2092929;83;21100;-71
2021/04/13 15:06:17;;;;;;;4.08;2.80;;;;;;;7.90;48.82;101018.34;2097743;83;21156;-72